This is the latest recevied weather packets stored in our database for station/object K4LEN. If no packets are shown the sender has not sent any weather packets the latest 1 day(s).
| Time | Temp. | Humidity | Pressure | Rain* | Wind** | Luminosity | Snow |
|---|---|---|---|---|---|---|---|
| 1778037336 | 20.56° C | 77% | 1013.2 hPa | 0 mm | 3.13 m/s, 20° | 8 W/m² | - |
| 1778036736 | 20.56° C | 77% | 1013.2 hPa | 0 mm | 2.24 m/s, 16° | 6 W/m² | - |
| 1778036136 | 20.56° C | 77% | 1013.2 hPa | 0 mm | 2.24 m/s, 20° | 9 W/m² | - |
| 1778035535 | 20.56° C | 77% | 1012.8 hPa | 0 mm | 3.13 m/s, 5° | 9 W/m² | - |
| 1778034933 | 20.56° C | 77% | 1012.6 hPa | 0 mm | 2.68 m/s, 310° | 10 W/m² | - |
| 1778034329 | 20° C | 77% | 1012.7 hPa | 0 mm | 3.58 m/s, 13° | 6 W/m² | - |
| 1778033723 | 20° C | 78% | 1012.7 hPa | 0 mm | 1.79 m/s, 352° | 10 W/m² | - |
| 1778033118 | 20° C | 78% | 1013.2 hPa | 0 mm | 2.24 m/s, 348° | 10 W/m² | - |
| 1778032519 | 20° C | 77% | 1013 hPa | 0 mm | 2.24 m/s, 336° | 9 W/m² | - |
| 1778031913 | 20.56° C | 77% | 1013.1 hPa | 0 mm | 2.68 m/s, 17° | 9 W/m² | - |
| 1778031313 | 20° C | 77% | 1012.9 hPa | 0 mm | 2.68 m/s, 7° | 9 W/m² | - |
| 1778030711 | 20.56° C | 77% | 1012.9 hPa | 0 mm | 3.58 m/s, 20° | 6 W/m² | - |
| 1778030111 | 20.56° C | 74% | 1012.7 hPa | 0 mm | 7.15 m/s, 21° | 6 W/m² | - |
| 1778029507 | 21.11° C | 73% | 1012.8 hPa | 0 mm | 3.58 m/s, 303° | 6 W/m² | - |
| 1778028906 | 21.11° C | 72% | 1012.6 hPa | 0 mm | 3.58 m/s, 17° | 6 W/m² | - |
| 1778028306 | 21.11° C | 72% | 1012.7 hPa | 0 mm | 3.58 m/s, 21° | 10 W/m² | - |
| 1778027704 | 21.11° C | 72% | 1012.6 hPa | 0 mm | 3.13 m/s, 4° | 10 W/m² | - |
| 1778027102 | 21.11° C | 71% | 1012.5 hPa | 0 mm | 1.79 m/s, 24° | 1 W/m² | - |
| 1778026500 | 21.11° C | 71% | 1012.2 hPa | 0 mm | 4.02 m/s, 21° | 7 W/m² | - |
| 1778024228 | 21.11° C | 70% | 1012.5 hPa | 0 mm | 4.02 m/s, 15° | 45 W/m² | - |
| 1778023623 | 21.11° C | 70% | 1012.5 hPa | 0 mm | 4.02 m/s, 15° | 45 W/m² | - |
| 1778023023 | 21.11° C | 69% | 1012.8 hPa | 0 mm | 4.02 m/s, 49° | 58 W/m² | - |
| 1778010016 | 20° C | 73% | 1013.7 hPa | 0 mm | 2.68 m/s, 8° | 170 W/m² | - |
| 1778009410 | 20° C | 73% | 1013.7 hPa | 0 mm | 2.68 m/s, 8° | 170 W/m² | - |
| 1778008806 | 20° C | 72% | 1013.8 hPa | 0 mm | 3.58 m/s, 351° | 210 W/m² | - |
* Rain latest hour (hover to see other rain measurements)
** Current wind speed in m/s (hover to see current wind gust speed)